Terminal Aerodrome Forecast
Issued by NWS Paducah, KY

Home | Current Version | Previous Version | Text Only | Print | Product List | Glossary On
Versions: 1 2 3 4 5 6 7 8 9 10 11 12 13 14 15 16
730
FTUS43 KPAH 192320
TAFPAH
TAF
KPAH 192320Z 2000/2024 VRB03KT P6SM SKC
     FM200900 00000KT 6SM BR FEW060
     FM201400 19007KT P6SM SCT040=

USA.gov is the U.S. government's official web portal to all federal, state and local government web resources and services.